Liverpool, Texas
Current Conditions -  °F | °C
As of 1:53 PM on Wednesday 26 Nov 2014 (Local Time) from KLVJ Reporting Station
Clear Clear  
Wind Chill: 72°   Ceiling: Unl
Heat Index: 72°   Visibility: 10mi
Dew Point: 35°   Wind: 10mph
Humidity: 26%   Direction: 240°WSW
Pressure: 30.19"   Gusts: 18mph
Location:  29.29°N, 95.28°W
Report Text: KLVJ 261953Z AUTO 24009G16KT 10SM CLR 22/02 A3019 RMK AO2 SLP223 T02220017
Loading
Personal Weather Stations






























Interactive Weather Map New forecast layout! Learn more

10-Day Weather Forecast

Advertisements
Track Severe Weather on mobile